createdAt,value
2023-04-06T03:47:26.660Z,73.80
2023-04-06T03:49:53.746Z,73.80
2023-04-06T03:52:20.976Z,73.60
2023-04-06T03:54:48.000Z,73.50
2023-04-06T03:57:15.112Z,73.70
2023-04-06T03:59:42.311Z,73.80
2023-04-06T04:02:09.494Z,73.60
2023-04-06T04:04:36.577Z,73.40
2023-04-06T04:07:03.715Z,73.90
2023-04-06T04:09:31.089Z,74.00
2023-04-06T04:11:58.248Z,73.60
2023-04-06T04:14:26.658Z,73.70
2023-04-06T04:16:53.806Z,73.80
2023-04-06T04:19:21.104Z,73.60
2023-04-06T04:21:48.110Z,73.70
2023-04-06T04:24:15.323Z,73.90
2023-04-06T04:26:42.357Z,73.90
2023-04-06T04:29:09.630Z,73.70
2023-04-06T04:31:36.797Z,74.00
2023-04-06T04:34:04.895Z,73.90
2023-04-06T04:36:31.876Z,74.00
2023-04-06T04:38:58.936Z,74.10
2023-04-06T04:41:25.972Z,74.10
2023-04-06T04:43:53.185Z,74.00
2023-04-06T04:46:20.500Z,74.00
2023-04-06T04:48:47.655Z,73.90
2023-04-06T04:51:14.738Z,73.90
2023-04-06T04:53:41.904Z,73.90
2023-04-06T04:56:08.968Z,73.70
2023-04-06T04:58:36.912Z,73.50
2023-04-06T05:01:04.017Z,74.10
2023-04-06T05:03:31.245Z,74.00
2023-04-06T05:05:58.282Z,73.90
2023-04-06T05:08:25.411Z,74.20
2023-04-06T05:10:52.551Z,74.10
2023-04-06T05:13:19.652Z,74.20
2023-04-06T05:15:46.779Z,74.00
2023-04-06T05:18:13.834Z,74.00
2023-04-06T05:20:41.427Z,74.20
2023-04-06T05:23:08.472Z,74.40
2023-04-06T05:25:35.611Z,74.80
2023-04-06T05:28:02.776Z,74.80
2023-04-06T05:30:33.026Z,74.80
2023-04-06T05:33:00.700Z,75.20
2023-04-06T05:35:27.767Z,74.90
2023-04-06T05:40:36.012Z,74.90
2023-04-06T05:43:06.504Z,75.40
2023-04-06T05:45:33.584Z,75.00
2023-04-06T05:48:00.662Z,75.60
2023-04-06T05:50:27.650Z,75.70
2023-04-06T05:52:54.627Z,75.70
2023-04-06T05:55:21.562Z,75.80
2023-04-06T05:57:48.669Z,76.00
2023-04-06T06:00:15.770Z,75.80
2023-04-06T06:02:43.412Z,75.70
2023-04-06T06:05:11.760Z,76.20
2023-04-06T06:07:39.137Z,76.10
2023-04-06T06:10:06.580Z,76.40
2023-04-06T06:12:33.618Z,76.60
2023-04-06T06:15:01.744Z,76.60
2023-04-06T06:17:29.079Z,76.70
2023-04-06T06:19:56.257Z,77.40
2023-04-06T06:22:23.372Z,77.00
2023-04-06T06:24:51.542Z,77.20
2023-04-06T06:27:20.990Z,77.10
2023-04-06T06:29:48.154Z,76.80
2023-04-06T06:32:15.677Z,76.90
2023-04-06T06:34:42.758Z,76.80
2023-04-06T06:37:09.832Z,76.90
2023-04-06T06:39:36.941Z,76.90
2023-04-06T06:42:04.017Z,77.10
2023-04-06T06:44:31.108Z,77.30
2023-04-06T06:46:58.483Z,77.20
2023-04-06T06:49:25.898Z,77.20
2023-04-06T06:51:52.930Z,76.90
2023-04-06T06:54:20.071Z,76.90
2023-04-06T06:56:49.685Z,77.70
2023-04-06T06:59:17.420Z,77.90
2023-04-06T07:01:44.568Z,77.60
2023-04-06T07:04:11.799Z,77.90
2023-04-06T07:06:39.158Z,77.50
2023-04-06T07:09:06.347Z,78.00
2023-04-06T07:11:35.871Z,78.00
2023-04-06T07:14:03.170Z,78.00
2023-04-06T07:16:30.289Z,78.30
2023-04-06T07:18:57.423Z,78.40
2023-04-06T07:21:24.612Z,78.40
2023-04-06T07:23:55.022Z,78.30
2023-04-06T07:26:30.663Z,77.60
2023-04-06T07:28:57.707Z,77.40
2023-04-06T07:31:24.859Z,77.00
2023-04-06T07:33:51.926Z,76.50
2023-04-06T07:36:19.227Z,76.20
2023-04-06T07:38:47.549Z,76.10
2023-04-06T07:41:14.649Z,76.00
2023-04-06T07:43:41.777Z,75.80
2023-04-06T07:46:08.875Z,75.20
2023-04-06T07:48:35.978Z,75.30
2023-04-06T07:51:03.851Z,75.50
2023-04-06T07:53:31.634Z,75.50
2023-04-06T07:56:01.681Z,74.80
2023-04-06T07:58:28.706Z,75.40
2023-04-06T08:00:56.338Z,75.70
2023-04-06T08:03:26.708Z,75.90
2023-04-06T08:05:54.068Z,76.00
2023-04-06T08:08:22.313Z,76.50
2023-04-06T08:10:49.787Z,76.40
2023-04-06T08:13:17.354Z,76.00
2023-04-06T08:15:44.522Z,76.20
2023-04-06T08:18:12.402Z,76.10
2023-04-06T08:20:40.204Z,76.00
2023-04-06T08:23:10.530Z,76.10
2023-04-06T08:25:38.186Z,74.30
2023-04-06T08:28:05.512Z,73.20
2023-04-06T08:30:40.898Z,72.90
2023-04-06T08:33:07.983Z,71.90
2023-04-06T08:35:35.386Z,72.60
2023-04-06T08:38:07.221Z,72.00
2023-04-06T08:40:41.735Z,72.40
2023-04-06T08:43:12.686Z,72.20
2023-04-06T08:45:42.039Z,72.10
2023-04-06T08:48:09.577Z,71.10
2023-04-06T08:50:37.233Z,72.20
2023-04-06T08:53:06.015Z,71.60
2023-04-06T08:55:53.651Z,71.20
2023-04-06T08:58:37.577Z,70.60
2023-04-06T09:01:14.840Z,70.70
2023-04-06T09:03:42.227Z,70.50
2023-04-06T09:12:27.793Z,71.10
2023-04-06T09:14:55.484Z,70.40
2023-04-06T09:17:35.044Z,69.80
2023-04-06T09:20:36.209Z,69.30
2023-04-06T09:23:32.463Z,70.20
2023-04-06T09:26:18.750Z,69.60
2023-04-06T09:28:56.509Z,69.80
2023-04-06T09:31:25.250Z,69.70
2023-04-06T09:37:48.057Z,69.10
2023-04-06T09:40:41.473Z,69.50
2023-04-06T09:43:16.024Z,69.00
2023-04-06T09:45:43.052Z,69.20
2023-04-06T09:48:10.096Z,68.00
2023-04-06T09:50:38.757Z,68.10
2023-04-06T09:53:06.086Z,67.00
2023-04-06T09:55:40.989Z,66.80
2023-04-06T09:58:10.407Z,66.90
2023-04-06T10:00:56.222Z,66.00
2023-04-06T10:03:41.489Z,66.90
2023-04-06T10:06:12.121Z,66.30
2023-04-06T10:08:42.252Z,66.00
2023-04-06T10:11:12.466Z,65.40
2023-04-06T10:13:39.422Z,65.20
2023-04-06T10:16:07.129Z,64.80
2023-04-06T10:18:34.383Z,64.60
2023-04-06T10:21:04.666Z,64.90
2023-04-06T10:23:36.916Z,64.80
2023-04-06T10:26:04.073Z,65.40
2023-04-06T10:28:32.160Z,64.70
2023-04-06T10:31:02.940Z,64.00
2023-04-06T10:33:30.001Z,62.70
2023-04-06T10:35:57.214Z,64.50
2023-04-06T10:38:41.877Z,64.60
2023-04-06T10:41:10.254Z,64.30
2023-04-06T10:43:38.210Z,64.00
2023-04-06T10:46:06.075Z,62.70
2023-04-06T10:48:53.358Z,62.90
2023-04-06T10:51:24.831Z,62.90
2023-04-06T10:53:53.873Z,63.10
2023-04-06T10:56:23.036Z,62.60
2023-04-06T10:58:52.195Z,62.90
2023-04-06T11:01:20.758Z,62.80
2023-04-06T11:03:48.860Z,61.20
2023-04-06T11:06:26.412Z,62.50
2023-04-06T11:08:53.969Z,62.20
2023-04-06T11:11:21.857Z,62.10
2023-04-06T11:13:53.448Z,62.10
2023-04-06T11:16:24.138Z,61.10
2023-04-06T11:18:51.981Z,61.00
2023-04-06T11:21:20.018Z,61.60
2023-04-06T11:23:47.038Z,61.30
2023-04-06T11:26:15.078Z,62.10
2023-04-06T11:28:43.310Z,61.90
2023-04-06T11:31:11.853Z,62.40
2023-04-06T11:33:41.937Z,60.60
2023-04-06T11:36:09.001Z,61.50
2023-04-06T11:38:39.809Z,61.20
2023-04-06T11:41:07.113Z,61.10
2023-04-06T11:43:34.074Z,61.80
2023-04-06T11:46:03.127Z,61.90
2023-04-06T11:48:30.664Z,61.30
2023-04-06T11:51:02.844Z,62.10
2023-04-06T11:53:30.664Z,62.40
2023-04-06T11:55:57.902Z,60.90
2023-04-06T11:58:24.877Z,61.50
2023-04-06T12:00:51.909Z,61.50
2023-04-06T12:03:19.114Z,61.50
2023-04-06T12:05:46.334Z,62.10
2023-04-06T12:08:13.346Z,61.40
2023-04-06T12:10:40.341Z,60.00
2023-04-06T12:13:07.438Z,61.60
2023-04-06T12:15:34.441Z,62.10
2023-04-06T12:18:01.438Z,61.20
2023-04-06T12:20:28.501Z,60.10
2023-04-06T12:22:55.609Z,60.00
2023-04-06T12:25:22.650Z,61.30
2023-04-06T12:27:49.690Z,61.40
2023-04-06T12:30:16.788Z,61.40
2023-04-06T12:32:43.749Z,57.20
2023-04-06T12:35:12.612Z,57.70
2023-04-06T12:37:39.617Z,58.30
2023-04-06T12:40:06.802Z,57.30
2023-04-06T12:42:33.847Z,57.60
2023-04-06T12:45:00.873Z,55.70
2023-04-06T12:47:28.764Z,55.40
2023-04-06T12:49:55.757Z,55.40
2023-04-06T12:52:22.788Z,56.20
2023-04-06T12:54:51.216Z,55.20
2023-04-06T12:57:18.396Z,54.90
2023-04-06T12:59:45.532Z,56.10
2023-04-06T13:02:12.997Z,57.80
2023-04-06T13:04:40.225Z,59.20
2023-04-06T13:07:07.264Z,59.00
2023-04-06T13:09:34.279Z,59.50
2023-04-06T13:12:02.015Z,58.00
2023-04-06T13:14:29.033Z,57.40
2023-04-06T13:16:56.343Z,57.10
2023-04-06T13:19:23.604Z,57.70
2023-04-06T13:21:50.678Z,57.00
2023-04-06T13:24:17.950Z,57.80
2023-04-06T13:26:45.043Z,58.80
2023-04-06T13:29:12.036Z,59.10
2023-04-06T13:31:39.857Z,59.00
2023-04-06T13:34:06.917Z,58.90
2023-04-06T13:36:34.010Z,58.70
2023-04-06T13:39:01.123Z,58.00
2023-04-06T13:41:28.065Z,58.90
2023-04-06T13:43:55.584Z,57.80
2023-04-06T13:46:24.769Z,57.50
2023-04-06T13:48:52.042Z,57.90
2023-04-06T13:51:19.091Z,57.50
2023-04-06T13:53:46.376Z,57.20
2023-04-06T13:56:13.315Z,57.80
2023-04-06T13:58:40.308Z,56.40
2023-04-06T14:01:08.283Z,57.20
2023-04-06T14:03:36.210Z,57.20
2023-04-06T14:06:20.673Z,56.40
2023-04-06T14:08:58.303Z,57.30
2023-04-06T14:11:25.491Z,58.00
2023-04-06T14:13:52.423Z,57.50
2023-04-06T14:16:20.689Z,57.40
2023-04-06T14:18:47.681Z,56.30
2023-04-06T14:21:15.790Z,57.20
2023-04-06T14:23:43.119Z,55.90
2023-04-06T14:26:10.410Z,54.60
2023-04-06T14:28:38.063Z,54.30
2023-04-06T14:31:10.636Z,55.20
2023-04-06T14:33:37.595Z,54.60
2023-04-06T14:36:04.894Z,55.30
2023-04-06T14:38:34.612Z,54.50
2023-04-06T14:41:01.690Z,55.10
2023-04-06T14:43:28.675Z,54.40
2023-04-06T14:45:55.726Z,53.70
2023-04-06T14:48:22.717Z,53.00
2023-04-06T14:50:54.234Z,53.40
2023-04-06T14:53:21.484Z,52.30
2023-04-06T14:55:50.887Z,50.90
2023-04-06T14:58:18.452Z,51.10
2023-04-06T15:00:45.515Z,51.30
2023-04-06T15:03:12.762Z,50.30
2023-04-06T15:05:39.859Z,51.30
2023-04-06T15:08:06.820Z,51.30
2023-04-06T15:10:34.167Z,52.00
2023-04-06T15:13:01.301Z,51.30
2023-04-06T15:15:28.899Z,52.10
2023-04-06T15:17:55.960Z,52.40
2023-04-06T15:20:22.918Z,53.00
2023-04-06T15:22:49.840Z,52.50
2023-04-06T15:25:16.803Z,52.70
2023-04-06T15:27:43.784Z,51.80
2023-04-06T15:30:10.987Z,52.00
2023-04-06T15:32:38.045Z,53.00
2023-04-06T15:35:11.756Z,51.90
2023-04-06T15:37:39.313Z,52.30
2023-04-06T15:40:06.525Z,51.50
2023-04-06T15:42:33.435Z,51.40
2023-04-06T15:45:00.355Z,52.00
2023-04-06T15:47:27.302Z,51.60
2023-04-06T15:49:55.388Z,52.20
2023-04-06T15:52:22.855Z,52.40
2023-04-06T15:54:50.296Z,51.90
2023-04-06T15:57:17.228Z,50.80
2023-04-06T15:59:45.238Z,51.20
2023-04-06T16:02:12.222Z,52.70
2023-04-06T16:04:39.268Z,52.10
2023-04-06T16:07:06.372Z,51.70
2023-04-06T16:09:33.356Z,50.70
2023-04-06T16:12:01.468Z,52.40
2023-04-06T16:14:28.428Z,50.50
2023-04-06T16:16:55.389Z,50.60
2023-04-06T16:19:22.286Z,51.00
2023-04-06T16:21:49.290Z,51.10
2023-04-06T16:24:16.243Z,50.40
2023-04-06T16:26:44.324Z,51.00
2023-04-06T16:29:11.686Z,50.10
2023-04-06T16:31:38.774Z,50.80
2023-04-06T16:34:05.994Z,49.90
2023-04-06T16:36:33.861Z,49.50
2023-04-06T16:39:01.599Z,50.00
2023-04-06T16:41:28.637Z,49.70
2023-04-06T16:43:57.344Z,50.20
2023-04-06T16:46:31.417Z,49.90
2023-04-06T16:48:59.180Z,49.50
2023-04-06T16:51:27.339Z,49.50
2023-04-06T16:53:54.483Z,49.60
2023-04-06T16:56:21.785Z,49.70
2023-04-06T16:58:48.774Z,50.60
2023-04-06T17:01:20.051Z,50.70
2023-04-06T17:03:47.475Z,50.70
2023-04-06T17:06:15.090Z,50.80
2023-04-06T17:08:42.346Z,50.50
2023-04-06T17:11:09.548Z,50.80
2023-04-06T17:13:36.764Z,51.30
2023-04-06T17:16:04.116Z,50.00
2023-04-06T17:18:31.077Z,49.20
2023-04-06T17:20:58.445Z,49.40
2023-04-06T17:23:25.961Z,48.70
2023-04-06T17:25:54.603Z,48.60
2023-04-06T17:28:27.244Z,48.30
2023-04-06T17:30:54.239Z,48.70
2023-04-06T17:33:22.168Z,49.40
2023-04-06T17:35:49.789Z,50.10
2023-04-06T17:38:16.747Z,49.70
2023-04-06T17:40:43.629Z,49.30
2023-04-06T17:43:11.044Z,49.60
2023-04-06T17:45:38.310Z,49.70
2023-04-06T17:48:05.364Z,50.20
2023-04-06T17:50:32.313Z,50.50
2023-04-06T17:52:59.305Z,50.70
2023-04-06T17:55:26.367Z,49.20
2023-04-06T17:57:53.315Z,49.40
2023-04-06T18:00:24.272Z,49.50
2023-04-06T18:02:54.275Z,49.60
2023-04-06T18:05:21.745Z,49.70
2023-04-06T18:07:48.627Z,49.80
2023-04-06T18:10:17.251Z,49.70
2023-04-06T18:12:44.276Z,51.10
2023-04-06T18:15:11.532Z,51.20
2023-04-06T18:17:38.562Z,51.30
2023-04-06T18:20:06.069Z,51.30
2023-04-06T18:22:33.114Z,52.70
2023-04-06T18:25:01.622Z,52.70
2023-04-06T18:27:28.979Z,52.20
2023-04-06T18:29:56.014Z,52.50
2023-04-06T18:32:23.159Z,52.80
2023-04-06T18:34:50.581Z,53.10
2023-04-06T18:37:17.609Z,53.50
2023-04-06T18:39:44.516Z,56.80
2023-04-06T18:42:11.670Z,59.40
2023-04-06T18:44:38.579Z,59.50
2023-04-06T18:47:06.272Z,60.20
2023-04-06T18:49:33.225Z,61.20
2023-04-06T18:52:01.631Z,62.00
2023-04-06T18:54:28.801Z,62.10
2023-04-06T18:56:56.202Z,62.40
2023-04-06T18:59:23.283Z,62.10
2023-04-06T19:01:53.956Z,62.30
2023-04-06T19:04:21.559Z,63.10
2023-04-06T19:06:48.648Z,65.20
2023-04-06T19:09:15.646Z,68.50
2023-04-06T19:11:42.553Z,70.70
2023-04-06T19:14:09.472Z,71.90
2023-04-06T19:16:40.853Z,73.00
2023-04-06T19:19:08.443Z,73.80
2023-04-06T19:21:35.664Z,74.50
2023-04-06T19:24:03.111Z,75.40
2023-04-06T19:26:32.395Z,76.70
2023-04-06T19:28:59.402Z,77.60
2023-04-06T19:31:28.022Z,78.00
2023-04-06T19:33:55.596Z,78.70
2023-04-06T19:36:22.635Z,78.70
2023-04-06T19:38:49.762Z,79.20
2023-04-06T19:41:16.816Z,78.90
2023-04-06T19:43:43.700Z,79.30
2023-04-06T19:46:10.855Z,79.20
2023-04-06T19:48:37.843Z,78.90
2023-04-06T19:51:04.775Z,79.00
2023-04-06T19:53:31.741Z,79.50
2023-04-06T19:55:58.974Z,79.40
2023-04-06T19:58:25.901Z,79.90
2023-04-06T20:00:52.808Z,79.60
2023-04-06T20:03:19.962Z,79.10
2023-04-06T20:05:46.949Z,79.70
2023-04-06T20:08:14.144Z,80.10
2023-04-06T20:10:41.082Z,79.80
2023-04-06T20:13:08.039Z,79.90
2023-04-06T20:15:34.944Z,80.50
2023-04-06T20:18:01.885Z,80.60
2023-04-06T20:20:28.855Z,81.40
2023-04-06T20:22:55.797Z,81.50
2023-04-06T20:25:22.902Z,81.30
2023-04-06T20:27:51.759Z,81.40
2023-04-06T20:30:18.672Z,81.60
2023-04-06T20:32:45.712Z,81.80
2023-04-06T20:35:12.662Z,81.80
2023-04-06T20:37:39.651Z,82.10
2023-04-06T20:40:06.874Z,82.00
2023-04-06T20:42:34.493Z,82.10
2023-04-06T20:45:02.726Z,82.00
2023-04-06T20:47:30.337Z,82.20
2023-04-06T20:49:57.315Z,81.90
2023-04-06T20:52:24.227Z,81.80
2023-04-06T20:54:51.126Z,81.60
2023-04-06T20:57:18.276Z,81.70
2023-04-06T20:59:45.529Z,81.50
2023-04-06T21:02:12.817Z,81.40
2023-04-06T21:04:39.977Z,81.70
2023-04-06T21:07:07.212Z,81.60
2023-04-06T21:09:34.960Z,81.60
2023-04-06T21:12:02.309Z,81.70
2023-04-06T21:14:29.219Z,81.70
2023-04-06T21:16:56.150Z,81.90
2023-04-06T21:19:23.028Z,81.90
2023-04-06T21:21:50.148Z,81.90
2023-04-06T21:24:17.210Z,82.50
2023-04-06T21:26:44.292Z,82.40
2023-04-06T21:29:11.221Z,82.80
2023-04-06T21:31:42.081Z,83.10
2023-04-06T21:34:12.648Z,82.90
2023-04-06T21:36:40.396Z,83.70
2023-04-06T21:39:07.489Z,84.70
2023-04-06T21:41:34.537Z,84.20
2023-04-06T21:44:01.438Z,84.70
2023-04-06T21:46:28.695Z,84.40
2023-04-06T21:48:55.928Z,84.20
2023-04-06T21:51:23.228Z,85.00
2023-04-06T21:53:50.185Z,84.50
2023-04-06T21:56:21.656Z,85.30
2023-04-06T21:58:48.744Z,85.30
2023-04-06T22:01:15.692Z,85.30
2023-04-06T22:03:43.223Z,85.20
2023-04-06T22:06:10.452Z,86.10
2023-04-06T22:08:37.557Z,86.00
2023-04-06T22:11:11.675Z,86.00
2023-04-06T22:13:39.022Z,85.60
2023-04-06T22:16:06.616Z,85.60
2023-04-06T22:18:34.126Z,85.80
2023-04-06T22:21:03.249Z,86.00
2023-04-06T22:23:32.113Z,85.70
2023-04-06T22:25:59.172Z,86.10
2023-04-06T22:28:26.339Z,86.60
2023-04-06T22:30:53.352Z,86.40
2023-04-06T22:33:20.268Z,86.10
2023-04-06T22:35:47.232Z,85.70
2023-04-06T22:38:14.140Z,85.30
2023-04-06T22:40:41.040Z,85.50
2023-04-06T22:43:08.235Z,85.50
2023-04-06T22:45:35.375Z,85.00
2023-04-06T22:48:02.389Z,85.10
2023-04-06T22:50:29.501Z,86.30
2023-04-06T22:52:56.538Z,86.20
2023-04-06T22:55:23.603Z,86.80
2023-04-06T22:57:59.662Z,87.20
